Flight Track Log - Related Links

Times and Time Zones

All times are in EST time to prevent confusion due to time zone crossing. See the N54PT flight status page for this flight to view local times or setup timezone preferences in your user account.

Time Position Orientation Groundspeed Altitude Reporting Facility
EST Latitude Longitude Course Direction KTS MPH feet Rate Location/Type
Fri 05:48:40 PM 38.5667 -121.1333 354° North 150 173 4,200  Level Northern Cal TRACON
Fri 05:49:34 PM 38.6000 -121.1333 360° North 161 185 5,200 1,121 Climbing Northern Cal TRACON
Fri 05:50:11 PM 38.6208 -121.1394 347° North 160 184 5,900 1,347 Climbing Oakland Center
Fri 05:51:12 PM 38.6636 -121.1378 North 157 181 7,400 1,377 Climbing Oakland Center
Fri 05:52:13 PM 38.7083 -121.1406 357° North 162 186 8,700 1,317 Climbing Oakland Center
Fri 05:53:15 PM 38.7539 -121.1489 352° North 164 189 10,100 1,366 Climbing Oakland Center
Fri 05:54:00 PM 38.8075 -121.1463 354° North  Level FlightAware Approximate
Fri 05:54:16 PM 38.8072 -121.1558 354° North 161 185 11,500  Level Oakland Center
Fri 05:55:18 PM 38.8536 -121.1633 353° North 166 191 12,600 1,171 Climbing Oakland Center
Fri 05:56:19 PM 38.8989 -121.1697 354° North 164 189 13,900 1,230 Climbing Oakland Center
Fri 05:57:20 PM 38.9444 -121.1761 354° North 164 189 15,100 1,024 Climbing Oakland Center
Fri 05:58:22 PM 38.9906 -121.1844 352° North 167 192 16,000 878 Climbing Oakland Center
Fri 05:59:23 PM 39.0372 -121.1906 354° North 168 193 16,900 878 Climbing Oakland Center
Fri 06:00:25 PM 39.0856 -121.1992 352° North 173 199 17,800 829 Climbing Oakland Center
Fri 06:01:26 PM 39.1344 -121.2078 352° North 177 204 18,600 683 Climbing Oakland Center
Fri 06:02:28 PM 39.1961 -121.2181 353° North 186 214 19,200 585 Climbing Oakland Center
Fri 06:03:29 PM 39.2514 -121.2311 350° North 201 231 19,800 341 Climbing Oakland Center
Fri 06:04:31 PM 39.3072 -121.2431 351° North 204 235 19,900 48 Climbing Oakland Center
Fri 06:05:33 PM 39.3681 -121.2581 349° North 218 251 19,900  Level Oakland Center
Fri 06:06:34 PM 39.4292 -121.2725 350° North 222 255 19,900  Level Oakland Center
Fri 06:07:36 PM 39.4911 -121.2869 350° North 222 255 19,900  Level Oakland Center
Fri 06:08:37 PM 39.5531 -121.3019 349° North 226 260 19,900  Level Oakland Center
Fri 06:09:39 PM 39.6139 -121.3164 350° North 223 257 19,900 -49 Level Oakland Center
Fri 06:10:40 PM 39.6758 -121.3308 350° North 226 260 19,800 -49 Descending Oakland Center
Fri 06:11:42 PM 39.7483 -121.3478 350° North 222 255 19,800  Level Oakland Center
Fri 06:12:44 PM 39.8097 -121.3622 350° North 223 257 19,800  Level Oakland Center
Fri 06:13:45 PM 39.8722 -121.3772 350° North 227 261 19,800  Level Oakland Center
Fri 06:14:47 PM 39.9336 -121.3922 349° North 227 261 19,800  Level Oakland Center
Fri 06:15:49 PM 39.9967 -121.4069 350° North 229 264 19,800  Level Oakland Center
Fri 06:16:50 PM 40.0589 -121.4206 350° North 229 264 19,800  Level Oakland Center
Fri 06:17:52 PM 40.1331 -121.4394 349° North 227 261 19,800  Level Oakland Center
Fri 06:18:53 PM 40.1967 -121.4542 350° North 231 266 19,800  Level Oakland Center
Fri 06:19:55 PM 40.2581 -121.4683 350° North 228 262 19,800  Level Oakland Center
Fri 06:20:56 PM 40.3222 -121.4836 350° North 231 266 19,800  Level Oakland Center
Fri 06:21:58 PM 40.3850 -121.4994 349° North 231 266 19,800  Level Oakland Center
Fri 06:23:00 PM 40.4475 -121.5147 349° North 230 265 19,800  Level Oakland Center
Fri 06:24:01 PM 40.5100 -121.5278 351° North 229 264 19,800  Level Oakland Center
Fri 06:25:03 PM 40.5864 -121.5467 349° North 233 268 19,800  Level Oakland Center
Fri 06:26:04 PM 40.6492 -121.5636 348° North 232 267 19,800  Level Oakland Center
Fri 06:27:06 PM 40.7117 -121.5778 350° North 230 265 19,800  Level Oakland Center
Fri 06:28:37 PM 40.8014 -121.6000 349° North 230 265 19,800  Level Seattle Center
Fri 06:29:09 PM 40.8378 -121.6083 350° North 232 267 19,800  Level Oakland Center
Fri 06:30:10 PM 40.9003 -121.6231 350° North 230 265 19,800  Level Oakland Center
Fri 06:31:12 PM 40.9628 -121.6389 349° North 230 265 19,800  Level Oakland Center
Fri 06:32:13 PM 41.0261 -121.6547 349° North 232 267 19,800  Level Oakland Center
Fri 06:34:16 PM 41.1539 -121.6864 349° North 229 264 19,800  Level Oakland Center
Fri 06:35:18 PM 41.2300 -121.7042 350° North 231 266 19,800  Level Oakland Center
Fri 06:36:20 PM 41.2931 -121.7236 347° North 232 267 19,800  Level Oakland Center
Fri 06:37:21 PM 41.3550 -121.7361 351° North 228 262 19,800  Level Oakland Center
Fri 06:38:23 PM 41.4183 -121.7522 349° North 230 265 19,800  Level Oakland Center
Fri 06:39:24 PM 41.4806 -121.7672 350° North 229 264 19,800  Level Oakland Center
Fri 06:40:26 PM 41.5425 -121.7822 350° North 227 261 19,800  Level Oakland Center
Fri 06:41:27 PM 41.6047 -121.7986 349° North 228 262 19,800  Level Oakland Center
Fri 06:42:29 PM 41.6672 -121.8158 348° North 230 265 19,800  Level Oakland Center
Fri 06:43:30 PM 41.7422 -121.8333 350° North 229 264 19,800  Level Oakland Center
Fri 06:44:32 PM 41.8044 -121.8492 349° North 229 264 19,800  Level Oakland Center
Fri 06:45:53 PM 41.8825 -121.8708 348° North 229 264 19,800  Level Seattle Center
Fri 06:46:54 PM 41.9561 -121.8894 349° North 228 262 19,800  Level Seattle Center
Fri 06:47:55 PM 42.0172 -121.9047 349° North 228 262 19,800  Level Seattle Center
Fri 06:48:56 PM 42.0781 -121.9197 350° North 229 264 19,800  Level Seattle Center
Fri 06:49:57 PM 42.1369 -121.9344 349° North 225 259 19,800  Level Seattle Center
Fri 06:50:58 PM 42.1989 -121.9500 349° North 226 260 19,800  Level Seattle Center
Fri 06:51:59 PM 42.2597 -121.9658 349° North 225 259 19,800  Level Seattle Center
Fri 06:53:00 PM 42.3211 -121.9817 349° North 225 259 19,800  Level Seattle Center
Fri 06:54:01 PM 42.3953 -122.0000 350° North 226 260 19,800  Level Seattle Center
Fri 06:55:02 PM 42.4578 -122.0161 349° North 228 262 19,800  Level Seattle Center
Fri 06:56:03 PM 42.5192 -122.0319 349° North 226 260 19,800  Level Seattle Center
Fri 06:57:04 PM 42.5814 -122.0486 349° North 228 262 19,800  Level Seattle Center
Fri 06:58:05 PM 42.6431 -122.0647 349° North 227 261 19,800  Level Seattle Center
Fri 06:59:07 PM 42.7047 -122.0800 350° North 225 259 19,800  Level Seattle Center
Fri 07:00:08 PM 42.7667 -122.0981 348° North 227 261 19,800  Level Seattle Center
Fri 07:01:09 PM 42.8297 -122.1133 350° North 229 264 19,800  Level Seattle Center
Fri 07:02:10 PM 42.8919 -122.1314 348° North 229 264 19,800  Level Seattle Center
Fri 07:03:11 PM 42.9550 -122.1450 351° North 229 264 19,800  Level Seattle Center
Fri 07:04:12 PM 43.0297 -122.1647 349° North 226 260 19,800  Level Seattle Center
Fri 07:05:13 PM 43.0917 -122.1808 349° North 227 261 19,800  Level Seattle Center
Fri 07:06:14 PM 43.1547 -122.1978 349° North 229 264 19,800  Level Seattle Center
Fri 07:07:15 PM 43.2169 -122.2133 350° North 229 264 19,800  Level Seattle Center
Fri 07:08:16 PM 43.2844 -122.2325 348° North 232 267 19,800  Level Seattle Center
Fri 07:09:18 PM 43.3478 -122.2497 349° North 232 267 19,800  Level Seattle Center
Fri 07:10:19 PM 43.4103 -122.2656 350° North 229 264 19,800 98 Level Seattle Center
Fri 07:11:20 PM 43.4728 -122.2811 350° North 227 261 20,000 98 Climbing Seattle Center
Fri 07:12:21 PM 43.5336 -122.3000 347° North 224 258 20,000  Level Seattle Center
Fri 07:13:22 PM 43.5972 -122.3153 350° North 230 265 20,000  Level Seattle Center
Fri 07:14:23 PM 43.6592 -122.3336 348° North 228 262 20,000  Level Seattle Center
Fri 07:15:24 PM 43.7225 -122.3500 349° North 230 265 20,000  Level Seattle Center
Fri 07:16:25 PM 43.7858 -122.3667 349° North 232 267 20,000  Level Seattle Center
Fri 07:17:26 PM 43.8511 -122.3828 350° North 239 275 20,000  Level Seattle Center
Fri 07:18:27 PM 43.9150 -122.3997 349° North 235 270 20,000  Level Seattle Center
Fri 07:19:28 PM 43.9917 -122.4203 349° North 234 269 20,000 -49 Level Seattle Center
Fri 07:20:29 PM 44.0556 -122.4381 349° North 235 270 19,900 -639 Descending Seattle Center
Fri 07:21:30 PM 44.1242 -122.4567 349° North 248 285 18,700 -1,082 Descending Seattle Center
Fri 07:22:31 PM 44.2011 -122.4781 349° North 268 308 17,700 -738 Descending Seattle Center
Fri 07:23:32 PM 44.2758 -122.4986 349° North 268 308 17,200 -738 Descending Seattle Center
Fri 07:24:33 PM 44.3456 -122.5178 349° North 272 313 16,200 -1,033 Descending Seattle Center
Fri 07:25:34 PM 44.4175 -122.5378 349° North 267 307 15,100 -1,033 Descending Seattle Center
Fri 07:26:35 PM 44.4892 -122.5583 348° North 264 304 14,100 -934 Descending Seattle Center
Fri 07:27:36 PM 44.5581 -122.5769 349° North 256 295 13,200 -1,131 Descending Seattle Center
Fri 07:28:37 PM 44.6317 -122.5981 348° North 256 295 11,800 -1,279 Descending Seattle Center
Fri 07:29:38 PM 44.6992 -122.6161 349° North 252 290 10,600 -1,230 Descending Seattle Center
Fri 07:30:39 PM 44.7633 -122.6408 345° North 243 280 9,300 -1,406 Descending Seattle Center
Fri 07:30:42 PM 44.7764 -122.6475 340° North 239 275 9,100 -1,279 Descending Seattle Center
Fri 07:31:40 PM 44.8283 -122.6672 345° North 243 280 8,000 -1,154 Descending Seattle Center
Fri 07:32:26 PM 44.8867 -122.6886 345° North 245 282 7,100 -1,180 Descending Seattle Center
Fri 07:32:41 PM 44.8944 -122.6869 North 243 280 6,800 -1,444 Descending Seattle Center
Fri 07:33:20 PM 44.9422 -122.7178 335° Northwest 234 269 5,800 -1,377 Descending Seattle Center
Fri 07:33:42 PM 44.9525 -122.7222 343° North 233 268 5,400 -1,527 Descending Seattle Center
Fri 07:34:15 PM 44.9964 -122.7389 345° North 226 260 4,400 -1,180 Descending Seattle Center
Fri 07:34:43 PM 45.0228 -122.7444 352° North 221 254 4,200 -429 Descending Seattle Center

Login

Don't have an account? Register now (free) for customized features, flight alerts, and more!